sensor_id;sensor_type;location;lat;lon;timestamp;P1;durP1;ratioP1;P2;durP2;ratioP2
19919;SDS011;10122;50.074;19.920;2023-03-23T00:01:47;42.88;;;25.60;;
19919;SDS011;10122;50.074;19.920;2023-03-23T00:04:16;41.55;;;24.95;;
19919;SDS011;10122;50.074;19.920;2023-03-23T00:06:42;42.45;;;24.85;;
19919;SDS011;10122;50.074;19.920;2023-03-23T00:09:10;40.42;;;25.08;;
19919;SDS011;10122;50.074;19.920;2023-03-23T00:11:37;47.35;;;25.65;;
19919;SDS011;10122;50.074;19.920;2023-03-23T00:14:04;46.40;;;26.30;;
19919;SDS011;10122;50.074;19.920;2023-03-23T00:16:30;40.35;;;25.23;;
19919;SDS011;10122;50.074;19.920;2023-03-23T00:19:02;45.70;;;25.65;;
19919;SDS011;10122;50.074;19.920;2023-03-23T00:21:33;38.92;;;24.52;;
19919;SDS011;10122;50.074;19.920;2023-03-23T00:26:41;38.58;;;23.67;;
19919;SDS011;10122;50.074;19.920;2023-03-23T00:29:16;39.38;;;24.45;;
19919;SDS011;10122;50.074;19.920;2023-03-23T00:31:46;39.05;;;23.65;;
19919;SDS011;10122;50.074;19.920;2023-03-23T00:34:14;37.75;;;23.80;;
19919;SDS011;10122;50.074;19.920;2023-03-23T00:36:44;37.00;;;23.67;;
19919;SDS011;10122;50.074;19.920;2023-03-23T00:39:15;38.38;;;23.17;;
19919;SDS011;10122;50.074;19.920;2023-03-23T00:41:44;37.72;;;23.00;;
19919;SDS011;10122;50.074;19.920;2023-03-23T00:44:12;37.90;;;23.98;;
19919;SDS011;10122;50.074;19.920;2023-03-23T00:46:41;37.58;;;23.05;;
19919;SDS011;10122;50.074;19.920;2023-03-23T00:49:10;36.60;;;22.92;;
19919;SDS011;10122;50.074;19.920;2023-03-23T00:51:40;37.40;;;23.17;;
19919;SDS011;10122;50.074;19.920;2023-03-23T00:54:07;40.65;;;23.85;;
19919;SDS011;10122;50.074;19.920;2023-03-23T00:56:33;38.75;;;22.77;;
19919;SDS011;10122;50.074;19.920;2023-03-23T00:58:59;36.28;;;22.67;;
19919;SDS011;10122;50.074;19.920;2023-03-23T01:01:25;33.47;;;21.73;;
19919;SDS011;10122;50.074;19.920;2023-03-23T01:03:51;33.53;;;21.80;;
19919;SDS011;10122;50.074;19.920;2023-03-23T01:06:25;33.35;;;21.75;;
19919;SDS011;10122;50.074;19.920;2023-03-23T01:08:56;33.45;;;22.15;;
19919;SDS011;10122;50.074;19.920;2023-03-23T01:11:23;34.88;;;21.42;;
19919;SDS011;10122;50.074;19.920;2023-03-23T01:13:49;37.05;;;21.20;;
19919;SDS011;10122;50.074;19.920;2023-03-23T01:16:15;33.78;;;21.63;;
19919;SDS011;10122;50.074;19.920;2023-03-23T01:18:41;31.38;;;20.80;;
19919;SDS011;10122;50.074;19.920;2023-03-23T01:21:08;32.15;;;20.73;;
19919;SDS011;10122;50.074;19.920;2023-03-23T01:23:35;34.17;;;21.92;;
19919;SDS011;10122;50.074;19.920;2023-03-23T01:26:12;31.70;;;21.27;;
19919;SDS011;10122;50.074;19.920;2023-03-23T01:28:39;32.58;;;19.90;;
19919;SDS011;10122;50.074;19.920;2023-03-23T01:31:06;32.25;;;20.20;;
19919;SDS011;10122;50.074;19.920;2023-03-23T01:33:37;29.63;;;19.30;;
19919;SDS011;10122;50.074;19.920;2023-03-23T01:36:07;30.80;;;19.50;;
19919;SDS011;10122;50.074;19.920;2023-03-23T01:38:37;32.25;;;21.00;;
19919;SDS011;10122;50.074;19.920;2023-03-23T01:41:03;31.20;;;19.35;;
19919;SDS011;10122;50.074;19.920;2023-03-23T01:43:29;31.77;;;20.00;;
19919;SDS011;10122;50.074;19.920;2023-03-23T01:45:55;34.05;;;19.70;;
19919;SDS011;10122;50.074;19.920;2023-03-23T01:53:43;31.17;;;19.80;;
19919;SDS011;10122;50.074;19.920;2023-03-23T01:56:14;31.63;;;19.85;;
19919;SDS011;10122;50.074;19.920;2023-03-23T01:58:41;29.58;;;19.38;;
19919;SDS011;10122;50.074;19.920;2023-03-23T02:01:09;29.02;;;19.27;;
19919;SDS011;10122;50.074;19.920;2023-03-23T02:03:37;31.48;;;19.48;;
19919;SDS011;10122;50.074;19.920;2023-03-23T02:06:06;29.48;;;18.42;;
19919;SDS011;10122;50.074;19.920;2023-03-23T02:08:32;32.22;;;20.00;;
19919;SDS011;10122;50.074;19.920;2023-03-23T02:11:00;30.20;;;19.02;;
19919;SDS011;10122;50.074;19.920;2023-03-23T02:13:26;29.38;;;19.23;;
19919;SDS011;10122;50.074;19.920;2023-03-23T02:15:59;29.80;;;18.33;;
19919;SDS011;10122;50.074;19.920;2023-03-23T02:21:13;29.33;;;18.75;;
19919;SDS011;10122;50.074;19.920;2023-03-23T02:24:04;29.20;;;19.00;;
19919;SDS011;10122;50.074;19.920;2023-03-23T02:27:05;28.83;;;18.20;;
19919;SDS011;10122;50.074;19.920;2023-03-23T02:35:34;29.55;;;18.73;;
19919;SDS011;10122;50.074;19.920;2023-03-23T02:38:26;28.38;;;18.58;;
19919;SDS011;10122;50.074;19.920;2023-03-23T02:40:56;32.35;;;18.65;;
19919;SDS011;10122;50.074;19.920;2023-03-23T02:43:27;29.02;;;18.80;;
19919;SDS011;10122;50.074;19.920;2023-03-23T02:45:55;29.35;;;18.85;;
19919;SDS011;10122;50.074;19.920;2023-03-23T02:48:24;28.63;;;18.40;;
19919;SDS011;10122;50.074;19.920;2023-03-23T02:50:54;30.58;;;18.92;;
19919;SDS011;10122;50.074;19.920;2023-03-23T02:53:23;30.52;;;18.65;;
19919;SDS011;10122;50.074;19.920;2023-03-23T02:55:51;29.15;;;18.67;;
19919;SDS011;10122;50.074;19.920;2023-03-23T02:58:20;32.08;;;19.75;;
19919;SDS011;10122;50.074;19.920;2023-03-23T03:00:48;30.38;;;19.08;;
19919;SDS011;10122;50.074;19.920;2023-03-23T03:03:15;32.70;;;18.92;;
19919;SDS011;10122;50.074;19.920;2023-03-23T03:08:37;30.48;;;18.52;;
19919;SDS011;10122;50.074;19.920;2023-03-23T03:11:20;35.90;;;19.70;;
19919;SDS011;10122;50.074;19.920;2023-03-23T03:13:58;33.22;;;20.38;;
19919;SDS011;10122;50.074;19.920;2023-03-23T03:16:37;35.13;;;20.30;;
19919;SDS011;10122;50.074;19.920;2023-03-23T03:19:22;35.00;;;20.73;;
19919;SDS011;10122;50.074;19.920;2023-03-23T03:21:56;35.92;;;21.02;;
19919;SDS011;10122;50.074;19.920;2023-03-23T03:24:24;37.38;;;21.02;;
19919;SDS011;10122;50.074;19.920;2023-03-23T03:26:53;36.60;;;20.35;;
19919;SDS011;10122;50.074;19.920;2023-03-23T03:29:23;34.33;;;21.00;;
19919;SDS011;10122;50.074;19.920;2023-03-23T03:31:54;37.60;;;21.13;;
19919;SDS011;10122;50.074;19.920;2023-03-23T03:34:22;35.67;;;20.23;;
19919;SDS011;10122;50.074;19.920;2023-03-23T03:36:49;37.88;;;21.52;;
19919;SDS011;10122;50.074;19.920;2023-03-23T03:39:18;34.85;;;20.92;;
19919;SDS011;10122;50.074;19.920;2023-03-23T03:41:46;33.50;;;20.00;;
19919;SDS011;10122;50.074;19.920;2023-03-23T03:44:12;31.40;;;19.98;;
19919;SDS011;10122;50.074;19.920;2023-03-23T03:46:38;32.28;;;19.92;;
19919;SDS011;10122;50.074;19.920;2023-03-23T03:49:04;30.75;;;19.00;;
19919;SDS011;10122;50.074;19.920;2023-03-23T03:51:32;33.63;;;19.48;;
19919;SDS011;10122;50.074;19.920;2023-03-23T03:53:58;33.88;;;19.83;;
19919;SDS011;10122;50.074;19.920;2023-03-23T03:56:24;32.38;;;19.35;;
19919;SDS011;10122;50.074;19.920;2023-03-23T03:58:51;34.25;;;19.30;;
19919;SDS011;10122;50.074;19.920;2023-03-23T04:01:18;35.58;;;20.33;;
19919;SDS011;10122;50.074;19.920;2023-03-23T04:03:49;30.20;;;18.80;;
19919;SDS011;10122;50.074;19.920;2023-03-23T04:06:15;32.17;;;19.73;;
19919;SDS011;10122;50.074;19.920;2023-03-23T04:08:41;34.83;;;19.88;;
19919;SDS011;10122;50.074;19.920;2023-03-23T04:11:08;29.75;;;19.90;;
19919;SDS011;10122;50.074;19.920;2023-03-23T04:13:37;34.05;;;19.88;;
19919;SDS011;10122;50.074;19.920;2023-03-23T04:16:03;30.45;;;19.35;;
19919;SDS011;10122;50.074;19.920;2023-03-23T04:18:30;34.03;;;20.77;;
19919;SDS011;10122;50.074;19.920;2023-03-23T04:20:58;33.50;;;20.10;;
19919;SDS011;10122;50.074;19.920;2023-03-23T04:23:25;32.78;;;20.42;;
19919;SDS011;10122;50.074;19.920;2023-03-23T04:25:52;34.05;;;20.30;;
19919;SDS011;10122;50.074;19.920;2023-03-23T04:28:21;34.72;;;20.65;;
19919;SDS011;10122;50.074;19.920;2023-03-23T04:30:49;32.42;;;20.45;;
19919;SDS011;10122;50.074;19.920;2023-03-23T04:33:18;36.15;;;20.45;;
19919;SDS011;10122;50.074;19.920;2023-03-23T04:35:44;34.70;;;20.23;;
19919;SDS011;10122;50.074;19.920;2023-03-23T04:38:13;30.73;;;19.45;;
19919;SDS011;10122;50.074;19.920;2023-03-23T04:40:45;34.00;;;19.55;;
19919;SDS011;10122;50.074;19.920;2023-03-23T04:43:12;30.83;;;19.33;;
19919;SDS011;10122;50.074;19.920;2023-03-23T04:45:40;31.58;;;19.30;;
19919;SDS011;10122;50.074;19.920;2023-03-23T04:48:10;31.25;;;19.80;;
19919;SDS011;10122;50.074;19.920;2023-03-23T04:50:36;35.13;;;19.70;;
19919;SDS011;10122;50.074;19.920;2023-03-23T04:53:04;34.33;;;19.92;;
19919;SDS011;10122;50.074;19.920;2023-03-23T04:55:31;30.48;;;19.35;;
19919;SDS011;10122;50.074;19.920;2023-03-23T04:58:01;30.48;;;19.05;;
19919;SDS011;10122;50.074;19.920;2023-03-23T05:00:28;29.92;;;19.17;;
19919;SDS011;10122;50.074;19.920;2023-03-23T05:02:54;29.52;;;18.58;;
19919;SDS011;10122;50.074;19.920;2023-03-23T05:05:20;34.22;;;19.55;;
19919;SDS011;10122;50.074;19.920;2023-03-23T05:07:47;28.00;;;18.30;;
19919;SDS011;10122;50.074;19.920;2023-03-23T05:10:14;32.45;;;18.90;;
19919;SDS011;10122;50.074;19.920;2023-03-23T05:12:41;30.65;;;19.13;;
19919;SDS011;10122;50.074;19.920;2023-03-23T05:15:11;29.45;;;18.27;;
19919;SDS011;10122;50.074;19.920;2023-03-23T05:17:38;29.17;;;18.42;;
19919;SDS011;10122;50.074;19.920;2023-03-23T05:20:06;28.85;;;18.83;;
19919;SDS011;10122;50.074;19.920;2023-03-23T05:22:36;30.63;;;18.52;;
19919;SDS011;10122;50.074;19.920;2023-03-23T05:25:03;28.67;;;18.05;;
19919;SDS011;10122;50.074;19.920;2023-03-23T05:27:30;30.42;;;18.23;;
19919;SDS011;10122;50.074;19.920;2023-03-23T05:29:57;29.02;;;18.73;;
19919;SDS011;10122;50.074;19.920;2023-03-23T05:32:26;30.73;;;18.30;;
19919;SDS011;10122;50.074;19.920;2023-03-23T05:34:59;31.40;;;19.58;;
19919;SDS011;10122;50.074;19.920;2023-03-23T05:37:26;26.95;;;17.98;;
19919;SDS011;10122;50.074;19.920;2023-03-23T05:39:57;27.13;;;17.98;;
19919;SDS011;10122;50.074;19.920;2023-03-23T05:42:27;31.17;;;18.63;;
19919;SDS011;10122;50.074;19.920;2023-03-23T05:44:53;28.77;;;17.95;;
19919;SDS011;10122;50.074;19.920;2023-03-23T05:47:19;29.08;;;19.15;;
19919;SDS011;10122;50.074;19.920;2023-03-23T05:49:44;28.13;;;17.67;;
19919;SDS011;10122;50.074;19.920;2023-03-23T05:52:11;27.83;;;18.63;;
19919;SDS011;10122;50.074;19.920;2023-03-23T05:54:36;28.05;;;17.52;;
19919;SDS011;10122;50.074;19.920;2023-03-23T05:57:02;30.35;;;17.63;;
19919;SDS011;10122;50.074;19.920;2023-03-23T05:59:28;27.80;;;17.17;;
19919;SDS011;10122;50.074;19.920;2023-03-23T06:01:54;29.63;;;17.17;;
19919;SDS011;10122;50.074;19.920;2023-03-23T06:04:20;28.85;;;17.05;;
19919;SDS011;10122;50.074;19.920;2023-03-23T06:06:49;27.77;;;17.15;;
19919;SDS011;10122;50.074;19.920;2023-03-23T06:09:17;26.90;;;16.60;;
19919;SDS011;10122;50.074;19.920;2023-03-23T06:11:43;25.52;;;16.30;;
19919;SDS011;10122;50.074;19.920;2023-03-23T06:14:09;27.27;;;16.38;;
19919;SDS011;10122;50.074;19.920;2023-03-23T06:16:35;26.67;;;16.45;;
19919;SDS011;10122;50.074;19.920;2023-03-23T06:19:01;27.23;;;16.42;;
19919;SDS011;10122;50.074;19.920;2023-03-23T06:21:29;26.88;;;16.38;;
19919;SDS011;10122;50.074;19.920;2023-03-23T06:23:55;23.88;;;16.13;;
19919;SDS011;10122;50.074;19.920;2023-03-23T06:26:21;24.40;;;15.65;;
19919;SDS011;10122;50.074;19.920;2023-03-23T06:28:50;24.02;;;15.48;;
19919;SDS011;10122;50.074;19.920;2023-03-23T06:31:16;28.20;;;15.50;;
19919;SDS011;10122;50.074;19.920;2023-03-23T06:33:45;22.42;;;15.00;;
19919;SDS011;10122;50.074;19.920;2023-03-23T06:36:12;24.10;;;15.13;;
19919;SDS011;10122;50.074;19.920;2023-03-23T06:38:38;26.02;;;15.50;;
19919;SDS011;10122;50.074;19.920;2023-03-23T06:41:04;25.55;;;14.30;;
19919;SDS011;10122;50.074;19.920;2023-03-23T06:43:30;26.02;;;14.60;;
19919;SDS011;10122;50.074;19.920;2023-03-23T06:45:58;24.90;;;14.27;;
19919;SDS011;10122;50.074;19.920;2023-03-23T06:48:24;22.73;;;13.60;;
19919;SDS011;10122;50.074;19.920;2023-03-23T06:50:50;20.38;;;12.40;;
19919;SDS011;10122;50.074;19.920;2023-03-23T06:53:16;19.73;;;12.40;;
19919;SDS011;10122;50.074;19.920;2023-03-23T06:55:43;22.75;;;12.23;;
19919;SDS011;10122;50.074;19.920;2023-03-23T06:58:09;19.20;;;12.13;;
19919;SDS011;10122;50.074;19.920;2023-03-23T07:00:35;20.35;;;11.35;;
19919;SDS011;10122;50.074;19.920;2023-03-23T07:03:01;18.10;;;11.02;;
19919;SDS011;10122;50.074;19.920;2023-03-23T07:05:27;23.27;;;12.27;;
19919;SDS011;10122;50.074;19.920;2023-03-23T07:07:54;19.60;;;11.00;;
19919;SDS011;10122;50.074;19.920;2023-03-23T07:10:20;16.92;;;10.88;;
19919;SDS011;10122;50.074;19.920;2023-03-23T07:12:46;21.35;;;11.52;;
19919;SDS011;10122;50.074;19.920;2023-03-23T07:15:11;17.60;;;10.52;;
19919;SDS011;10122;50.074;19.920;2023-03-23T07:17:38;18.70;;;10.93;;
19919;SDS011;10122;50.074;19.920;2023-03-23T07:20:05;17.95;;;10.48;;
19919;SDS011;10122;50.074;19.920;2023-03-23T07:22:31;17.70;;;10.85;;
19919;SDS011;10122;50.074;19.920;2023-03-23T07:24:58;18.10;;;9.80;;
19919;SDS011;10122;50.074;19.920;2023-03-23T07:27:23;18.35;;;10.20;;
19919;SDS011;10122;50.074;19.920;2023-03-23T07:29:50;15.60;;;9.63;;
19919;SDS011;10122;50.074;19.920;2023-03-23T07:32:16;16.50;;;10.35;;
19919;SDS011;10122;50.074;19.920;2023-03-23T07:34:41;15.60;;;7.85;;
19919;SDS011;10122;50.074;19.920;2023-03-23T07:37:07;12.23;;;7.07;;
19919;SDS011;10122;50.074;19.920;2023-03-23T07:39:33;10.95;;;6.18;;
19919;SDS011;10122;50.074;19.920;2023-03-23T07:42:00;11.25;;;5.70;;
19919;SDS011;10122;50.074;19.920;2023-03-23T07:44:26;8.23;;;5.20;;
19919;SDS011;10122;50.074;19.920;2023-03-23T07:46:51;6.90;;;4.55;;
19919;SDS011;10122;50.074;19.920;2023-03-23T07:49:17;7.00;;;4.40;;
19919;SDS011;10122;50.074;19.920;2023-03-23T07:51:44;7.68;;;4.25;;
19919;SDS011;10122;50.074;19.920;2023-03-23T07:54:10;6.32;;;3.90;;
19919;SDS011;10122;50.074;19.920;2023-03-23T07:56:36;6.18;;;3.83;;
19919;SDS011;10122;50.074;19.920;2023-03-23T07:59:05;6.05;;;4.13;;
19919;SDS011;10122;50.074;19.920;2023-03-23T08:01:31;6.07;;;3.78;;
19919;SDS011;10122;50.074;19.920;2023-03-23T08:03:57;6.47;;;4.00;;
19919;SDS011;10122;50.074;19.920;2023-03-23T08:06:24;5.25;;;3.53;;
19919;SDS011;10122;50.074;19.920;2023-03-23T08:08:51;5.32;;;3.55;;
19919;SDS011;10122;50.074;19.920;2023-03-23T08:11:17;6.47;;;3.40;;
19919;SDS011;10122;50.074;19.920;2023-03-23T08:13:44;4.90;;;3.40;;
19919;SDS011;10122;50.074;19.920;2023-03-23T08:16:10;5.72;;;3.65;;
19919;SDS011;10122;50.074;19.920;2023-03-23T08:18:37;5.80;;;3.63;;
19919;SDS011;10122;50.074;19.920;2023-03-23T08:21:04;3.78;;;3.22;;
19919;SDS011;10122;50.074;19.920;2023-03-23T08:23:31;5.03;;;3.28;;
19919;SDS011;10122;50.074;19.920;2023-03-23T08:25:57;5.25;;;3.53;;
19919;SDS011;10122;50.074;19.920;2023-03-23T08:28:24;5.40;;;3.55;;
19919;SDS011;10122;50.074;19.920;2023-03-23T08:30:50;7.68;;;3.65;;
19919;SDS011;10122;50.074;19.920;2023-03-23T08:33:16;5.78;;;3.58;;
19919;SDS011;10122;50.074;19.920;2023-03-23T08:35:42;3.50;;;3.00;;
19919;SDS011;10122;50.074;19.920;2023-03-23T08:38:09;6.38;;;3.40;;
19919;SDS011;10122;50.074;19.920;2023-03-23T08:40:36;4.15;;;3.22;;
19919;SDS011;10122;50.074;19.920;2023-03-23T08:43:04;3.67;;;3.03;;
19919;SDS011;10122;50.074;19.920;2023-03-23T08:45:30;5.90;;;3.25;;
19919;SDS011;10122;50.074;19.920;2023-03-23T08:47:56;3.70;;;2.90;;
19919;SDS011;10122;50.074;19.920;2023-03-23T08:50:24;4.97;;;3.20;;
19919;SDS011;10122;50.074;19.920;2023-03-23T08:52:52;4.75;;;2.83;;
19919;SDS011;10122;50.074;19.920;2023-03-23T08:55:19;4.32;;;3.00;;
19919;SDS011;10122;50.074;19.920;2023-03-23T08:57:46;4.03;;;2.90;;
19919;SDS011;10122;50.074;19.920;2023-03-23T09:00:16;5.35;;;3.28;;
19919;SDS011;10122;50.074;19.920;2023-03-23T09:02:45;6.65;;;2.85;;
19919;SDS011;10122;50.074;19.920;2023-03-23T09:05:16;4.60;;;3.08;;
19919;SDS011;10122;50.074;19.920;2023-03-23T09:07:45;4.90;;;2.97;;
19919;SDS011;10122;50.074;19.920;2023-03-23T09:10:12;5.30;;;3.20;;
19919;SDS011;10122;50.074;19.920;2023-03-23T09:12:39;3.78;;;2.50;;
19919;SDS011;10122;50.074;19.920;2023-03-23T09:15:06;5.38;;;2.88;;
19919;SDS011;10122;50.074;19.920;2023-03-23T09:17:47;4.22;;;3.10;;
19919;SDS011;10122;50.074;19.920;2023-03-23T09:20:15;3.58;;;2.80;;
19919;SDS011;10122;50.074;19.920;2023-03-23T09:22:47;3.80;;;3.00;;
19919;SDS011;10122;50.074;19.920;2023-03-23T09:25:16;4.20;;;2.78;;
19919;SDS011;10122;50.074;19.920;2023-03-23T09:27:46;4.53;;;3.10;;
19919;SDS011;10122;50.074;19.920;2023-03-23T09:30:21;5.85;;;2.80;;
19919;SDS011;10122;50.074;19.920;2023-03-23T09:32:54;3.88;;;2.90;;
19919;SDS011;10122;50.074;19.920;2023-03-23T09:35:20;3.55;;;2.70;;
19919;SDS011;10122;50.074;19.920;2023-03-23T09:37:46;4.13;;;2.90;;
19919;SDS011;10122;50.074;19.920;2023-03-23T09:40:15;4.18;;;2.70;;
19919;SDS011;10122;50.074;19.920;2023-03-23T09:50:40;4.07;;;2.60;;
19919;SDS011;10122;50.074;19.920;2023-03-23T09:55:43;4.20;;;2.60;;
19919;SDS011;10122;50.074;19.920;2023-03-23T09:58:18;4.40;;;2.50;;
19919;SDS011;10122;50.074;19.920;2023-03-23T10:03:30;3.45;;;2.53;;
19919;SDS011;10122;50.074;19.920;2023-03-23T10:06:03;3.35;;;2.50;;
19919;SDS011;10122;50.074;19.920;2023-03-23T10:08:32;3.78;;;2.50;;
19919;SDS011;10122;50.074;19.920;2023-03-23T10:11:11;4.55;;;2.60;;
19919;SDS011;10122;50.074;19.920;2023-03-23T10:16:56;5.82;;;2.85;;
19919;SDS011;10122;50.074;19.920;2023-03-23T10:22:17;3.97;;;2.42;;
19919;SDS011;10122;50.074;19.920;2023-03-23T10:27:52;4.00;;;2.70;;
19919;SDS011;10122;50.074;19.920;2023-03-23T10:30:40;2.83;;;2.05;;
19919;SDS011;10122;50.074;19.920;2023-03-23T10:33:15;4.03;;;2.65;;
19919;SDS011;10122;50.074;19.920;2023-03-23T10:36:09;3.95;;;2.58;;
19919;SDS011;10122;50.074;19.920;2023-03-23T10:38:41;4.28;;;2.80;;
19919;SDS011;10122;50.074;19.920;2023-03-23T10:41:29;3.58;;;2.60;;
19919;SDS011;10122;50.074;19.920;2023-03-23T10:43:56;4.70;;;2.85;;
19919;SDS011;10122;50.074;19.920;2023-03-23T10:49:10;5.57;;;2.88;;
19919;SDS011;10122;50.074;19.920;2023-03-23T10:51:41;4.32;;;2.80;;
19919;SDS011;10122;50.074;19.920;2023-03-23T10:54:09;5.43;;;2.65;;
19919;SDS011;10122;50.074;19.920;2023-03-23T10:56:37;5.30;;;3.00;;
19919;SDS011;10122;50.074;19.920;2023-03-23T10:59:25;5.50;;;2.90;;
19919;SDS011;10122;50.074;19.920;2023-03-23T11:01:54;5.05;;;2.88;;
19919;SDS011;10122;50.074;19.920;2023-03-23T11:04:23;3.92;;;2.55;;
19919;SDS011;10122;50.074;19.920;2023-03-23T11:06:51;5.28;;;2.90;;
19919;SDS011;10122;50.074;19.920;2023-03-23T11:09:21;3.13;;;1.92;;
19919;SDS011;10122;50.074;19.920;2023-03-23T11:11:58;5.75;;;2.90;;
19919;SDS011;10122;50.074;19.920;2023-03-23T11:16:53;5.40;;;1.95;;
19919;SDS011;10122;50.074;19.920;2023-03-23T11:19:31;4.05;;;2.83;;
19919;SDS011;10122;50.074;19.920;2023-03-23T11:24:30;5.18;;;2.85;;
19919;SDS011;10122;50.074;19.920;2023-03-23T11:26:58;2.25;;;1.92;;
19919;SDS011;10122;50.074;19.920;2023-03-23T11:29:26;4.13;;;2.00;;
19919;SDS011;10122;50.074;19.920;2023-03-23T11:32:04;4.45;;;2.42;;
19919;SDS011;10122;50.074;19.920;2023-03-23T11:34:36;4.25;;;2.65;;
19919;SDS011;10122;50.074;19.920;2023-03-23T11:37:10;3.53;;;2.60;;
19919;SDS011;10122;50.074;19.920;2023-03-23T11:39:53;3.10;;;2.28;;
19919;SDS011;10122;50.074;19.920;2023-03-23T11:42:46;4.50;;;2.97;;
19919;SDS011;10122;50.074;19.920;2023-03-23T11:53:55;3.80;;;2.47;;
19919;SDS011;10122;50.074;19.920;2023-03-23T11:56:36;4.75;;;1.77;;
19919;SDS011;10122;50.074;19.920;2023-03-23T11:59:09;4.35;;;2.33;;
19919;SDS011;10122;50.074;19.920;2023-03-23T12:04:37;5.15;;;2.60;;
19919;SDS011;10122;50.074;19.920;2023-03-23T12:07:14;3.25;;;2.30;;
19919;SDS011;10122;50.074;19.920;2023-03-23T12:18:12;4.65;;;2.58;;
19919;SDS011;10122;50.074;19.920;2023-03-23T12:26:09;4.20;;;2.45;;
19919;SDS011;10122;50.074;19.920;2023-03-23T12:36:24;7.60;;;3.05;;
19919;SDS011;10122;50.074;19.920;2023-03-23T12:44:35;5.68;;;3.08;;
19919;SDS011;10122;50.074;19.920;2023-03-23T12:49:44;4.80;;;2.80;;
19919;SDS011;10122;50.074;19.920;2023-03-23T12:57:41;5.07;;;3.05;;
19919;SDS011;10122;50.074;19.920;2023-03-23T13:00:23;5.45;;;3.30;;
19919;SDS011;10122;50.074;19.920;2023-03-23T13:03:14;4.82;;;2.67;;
19919;SDS011;10122;50.074;19.920;2023-03-23T13:11:21;4.57;;;3.03;;
19919;SDS011;10122;50.074;19.920;2023-03-23T13:14:19;5.57;;;3.10;;
19919;SDS011;10122;50.074;19.920;2023-03-23T13:17:20;4.28;;;2.80;;
19919;SDS011;10122;50.074;19.920;2023-03-23T13:22:52;3.53;;;2.58;;
19919;SDS011;10122;50.074;19.920;2023-03-23T13:25:48;4.40;;;2.67;;
19919;SDS011;10122;50.074;19.920;2023-03-23T13:31:22;4.00;;;2.50;;
19919;SDS011;10122;50.074;19.920;2023-03-23T13:34:38;3.80;;;2.55;;
19919;SDS011;10122;50.074;19.920;2023-03-23T13:36:59;5.57;;;2.70;;
19919;SDS011;10122;50.074;19.920;2023-03-23T13:39:31;4.55;;;2.72;;
19919;SDS011;10122;50.074;19.920;2023-03-23T13:44:25;4.80;;;2.63;;
19919;SDS011;10122;50.074;19.920;2023-03-23T13:46:56;7.20;;;2.53;;
19919;SDS011;10122;50.074;19.920;2023-03-23T13:49:31;4.75;;;2.42;;
19919;SDS011;10122;50.074;19.920;2023-03-23T13:52:17;4.68;;;2.72;;
19919;SDS011;10122;50.074;19.920;2023-03-23T13:54:48;4.05;;;2.53;;
19919;SDS011;10122;50.074;19.920;2023-03-23T13:57:32;4.93;;;2.60;;
19919;SDS011;10122;50.074;19.920;2023-03-23T14:00:24;5.00;;;2.55;;
19919;SDS011;10122;50.074;19.920;2023-03-23T14:03:34;4.65;;;2.40;;
19919;SDS011;10122;50.074;19.920;2023-03-23T14:08:25;3.33;;;2.20;;
19919;SDS011;10122;50.074;19.920;2023-03-23T14:11:19;5.15;;;2.35;;
19919;SDS011;10122;50.074;19.920;2023-03-23T14:14:04;3.65;;;2.17;;
19919;SDS011;10122;50.074;19.920;2023-03-23T14:16:35;3.63;;;2.30;;
19919;SDS011;10122;50.074;19.920;2023-03-23T14:19:21;3.70;;;2.20;;
19919;SDS011;10122;50.074;19.920;2023-03-23T14:21:53;5.15;;;2.20;;
19919;SDS011;10122;50.074;19.920;2023-03-23T14:27:11;3.15;;;2.15;;
19919;SDS011;10122;50.074;19.920;2023-03-23T14:29:39;3.97;;;2.30;;
19919;SDS011;10122;50.074;19.920;2023-03-23T14:32:06;3.33;;;2.13;;
19919;SDS011;10122;50.074;19.920;2023-03-23T14:34:35;2.88;;;2.30;;
19919;SDS011;10122;50.074;19.920;2023-03-23T14:37:01;3.22;;;2.20;;
19919;SDS011;10122;50.074;19.920;2023-03-23T14:39:28;4.75;;;2.40;;
19919;SDS011;10122;50.074;19.920;2023-03-23T14:42:00;3.60;;;2.45;;
19919;SDS011;10122;50.074;19.920;2023-03-23T14:44:39;4.53;;;2.40;;
19919;SDS011;10122;50.074;19.920;2023-03-23T14:47:10;5.72;;;2.53;;
19919;SDS011;10122;50.074;19.920;2023-03-23T14:49:44;4.07;;;2.65;;
19919;SDS011;10122;50.074;19.920;2023-03-23T14:52:11;4.15;;;2.55;;
19919;SDS011;10122;50.074;19.920;2023-03-23T14:54:41;3.35;;;2.33;;
19919;SDS011;10122;50.074;19.920;2023-03-23T14:57:12;4.15;;;2.50;;
19919;SDS011;10122;50.074;19.920;2023-03-23T14:59:44;6.68;;;2.88;;
19919;SDS011;10122;50.074;19.920;2023-03-23T15:02:20;4.68;;;2.67;;
19919;SDS011;10122;50.074;19.920;2023-03-23T15:05:31;4.65;;;2.30;;
19919;SDS011;10122;50.074;19.920;2023-03-23T15:07:59;4.57;;;2.63;;
19919;SDS011;10122;50.074;19.920;2023-03-23T15:10:38;5.50;;;2.80;;
19919;SDS011;10122;50.074;19.920;2023-03-23T15:13:04;4.97;;;2.90;;
19919;SDS011;10122;50.074;19.920;2023-03-23T15:15:31;3.83;;;2.60;;
19919;SDS011;10122;50.074;19.920;2023-03-23T15:18:00;4.50;;;2.75;;
19919;SDS011;10122;50.074;19.920;2023-03-23T15:23:15;5.30;;;3.00;;
19919;SDS011;10122;50.074;19.920;2023-03-23T15:25:50;4.85;;;2.60;;
19919;SDS011;10122;50.074;19.920;2023-03-23T15:28:18;5.65;;;3.00;;
19919;SDS011;10122;50.074;19.920;2023-03-23T15:30:53;4.03;;;2.55;;
19919;SDS011;10122;50.074;19.920;2023-03-23T15:33:23;6.88;;;2.97;;
19919;SDS011;10122;50.074;19.920;2023-03-23T15:35:53;6.35;;;2.95;;
19919;SDS011;10122;50.074;19.920;2023-03-23T15:38:21;6.80;;;3.03;;
19919;SDS011;10122;50.074;19.920;2023-03-23T15:40:56;6.28;;;3.28;;
19919;SDS011;10122;50.074;19.920;2023-03-23T15:43:27;9.10;;;3.58;;
19919;SDS011;10122;50.074;19.920;2023-03-23T15:46:05;10.23;;;3.70;;
19919;SDS011;10122;50.074;19.920;2023-03-23T15:48:47;7.32;;;3.08;;
19919;SDS011;10122;50.074;19.920;2023-03-23T15:51:34;12.43;;;3.30;;
19919;SDS011;10122;50.074;19.920;2023-03-23T15:54:00;6.95;;;3.67;;
19919;SDS011;10122;50.074;19.920;2023-03-23T15:56:26;9.70;;;3.55;;
19919;SDS011;10122;50.074;19.920;2023-03-23T15:58:54;6.93;;;3.40;;
19919;SDS011;10122;50.074;19.920;2023-03-23T16:01:24;7.10;;;3.40;;
19919;SDS011;10122;50.074;19.920;2023-03-23T16:06:21;5.13;;;3.38;;
19919;SDS011;10122;50.074;19.920;2023-03-23T16:08:49;7.43;;;3.38;;
19919;SDS011;10122;50.074;19.920;2023-03-23T16:11:16;7.07;;;3.70;;
19919;SDS011;10122;50.074;19.920;2023-03-23T16:13:43;5.80;;;3.38;;
19919;SDS011;10122;50.074;19.920;2023-03-23T16:16:51;5.80;;;3.40;;
19919;SDS011;10122;50.074;19.920;2023-03-23T16:19:00;6.13;;;3.33;;
19919;SDS011;10122;50.074;19.920;2023-03-23T16:21:26;7.32;;;3.40;;
19919;SDS011;10122;50.074;19.920;2023-03-23T16:23:51;5.22;;;3.40;;
19919;SDS011;10122;50.074;19.920;2023-03-23T16:26:17;8.93;;;3.55;;
19919;SDS011;10122;50.074;19.920;2023-03-23T16:28:43;5.28;;;3.00;;
19919;SDS011;10122;50.074;19.920;2023-03-23T16:31:10;5.10;;;3.10;;
19919;SDS011;10122;50.074;19.920;2023-03-23T16:33:36;6.63;;;3.70;;
19919;SDS011;10122;50.074;19.920;2023-03-23T16:36:02;5.90;;;3.17;;
19919;SDS011;10122;50.074;19.920;2023-03-23T16:38:28;6.10;;;3.60;;
19919;SDS011;10122;50.074;19.920;2023-03-23T16:40:54;7.40;;;3.55;;